sensor_id;sensor_type;location;lat;lon;timestamp;P1;durP1;ratioP1;P2;durP2;ratioP2
1719;SDS011;857;52.872;9.692;2023-02-28T00:00:27;12.43;;;6.27;;
1719;SDS011;857;52.872;9.692;2023-02-28T00:02:55;8.40;;;5.50;;
1719;SDS011;857;52.872;9.692;2023-02-28T00:05:23;9.27;;;5.10;;
1719;SDS011;857;52.872;9.692;2023-02-28T00:07:52;6.87;;;4.60;;
1719;SDS011;857;52.872;9.692;2023-02-28T00:10:21;12.87;;;5.90;;
1719;SDS011;857;52.872;9.692;2023-02-28T00:12:51;9.30;;;5.63;;
1719;SDS011;857;52.872;9.692;2023-02-28T00:15:19;7.53;;;4.57;;
1719;SDS011;857;52.872;9.692;2023-02-28T00:17:48;8.17;;;4.90;;
1719;SDS011;857;52.872;9.692;2023-02-28T00:20:16;9.33;;;5.10;;
1719;SDS011;857;52.872;9.692;2023-02-28T00:22:44;9.83;;;4.47;;
1719;SDS011;857;52.872;9.692;2023-02-28T00:25:13;5.77;;;3.80;;
1719;SDS011;857;52.872;9.692;2023-02-28T00:27:41;6.27;;;4.40;;
1719;SDS011;857;52.872;9.692;2023-02-28T00:30:11;9.13;;;4.30;;
1719;SDS011;857;52.872;9.692;2023-02-28T00:32:40;5.97;;;4.00;;
1719;SDS011;857;52.872;9.692;2023-02-28T00:35:08;7.73;;;4.37;;
1719;SDS011;857;52.872;9.692;2023-02-28T00:37:36;6.77;;;4.57;;
1719;SDS011;857;52.872;9.692;2023-02-28T00:40:05;5.77;;;3.30;;
1719;SDS011;857;52.872;9.692;2023-02-28T00:42:33;6.57;;;3.70;;
1719;SDS011;857;52.872;9.692;2023-02-28T00:45:01;5.13;;;3.60;;
1719;SDS011;857;52.872;9.692;2023-02-28T00:47:31;6.87;;;3.70;;
1719;SDS011;857;52.872;9.692;2023-02-28T00:49:59;7.43;;;4.10;;
1719;SDS011;857;52.872;9.692;2023-02-28T00:52:27;6.37;;;3.90;;
1719;SDS011;857;52.872;9.692;2023-02-28T00:54:55;5.20;;;3.57;;
1719;SDS011;857;52.872;9.692;2023-02-28T00:57:23;9.53;;;4.60;;
1719;SDS011;857;52.872;9.692;2023-02-28T00:59:50;4.73;;;3.60;;
1719;SDS011;857;52.872;9.692;2023-02-28T01:02:20;5.30;;;3.63;;
1719;SDS011;857;52.872;9.692;2023-02-28T01:04:49;5.33;;;3.60;;
1719;SDS011;857;52.872;9.692;2023-02-28T01:07:17;5.57;;;3.60;;
1719;SDS011;857;52.872;9.692;2023-02-28T01:09:45;4.43;;;3.27;;
1719;SDS011;857;52.872;9.692;2023-02-28T01:12:13;5.50;;;3.50;;
1719;SDS011;857;52.872;9.692;2023-02-28T01:14:41;4.90;;;3.23;;
1719;SDS011;857;52.872;9.692;2023-02-28T01:17:09;6.30;;;3.70;;
1719;SDS011;857;52.872;9.692;2023-02-28T01:19:37;5.00;;;3.30;;
1719;SDS011;857;52.872;9.692;2023-02-28T01:22:06;7.77;;;4.80;;
1719;SDS011;857;52.872;9.692;2023-02-28T01:24:34;7.23;;;4.57;;
1719;SDS011;857;52.872;9.692;2023-02-28T01:27:02;7.30;;;3.83;;
1719;SDS011;857;52.872;9.692;2023-02-28T01:29:29;5.23;;;3.33;;
1719;SDS011;857;52.872;9.692;2023-02-28T01:31:57;7.93;;;4.07;;
1719;SDS011;857;52.872;9.692;2023-02-28T01:34:25;9.70;;;3.70;;
1719;SDS011;857;52.872;9.692;2023-02-28T01:36:53;6.60;;;3.37;;
1719;SDS011;857;52.872;9.692;2023-02-28T01:39:22;7.23;;;3.50;;
1719;SDS011;857;52.872;9.692;2023-02-28T01:41:50;7.97;;;4.10;;
1719;SDS011;857;52.872;9.692;2023-02-28T01:47:04;4.97;;;3.30;;
1719;SDS011;857;52.872;9.692;2023-02-28T01:49:31;7.03;;;3.50;;
1719;SDS011;857;52.872;9.692;2023-02-28T01:51:59;5.23;;;3.57;;
1719;SDS011;857;52.872;9.692;2023-02-28T01:54:29;8.23;;;3.50;;
1719;SDS011;857;52.872;9.692;2023-02-28T01:56:58;6.70;;;2.97;;
1719;SDS011;857;52.872;9.692;2023-02-28T01:59:29;5.50;;;3.40;;
1719;SDS011;857;52.872;9.692;2023-02-28T02:01:57;4.03;;;3.43;;
1719;SDS011;857;52.872;9.692;2023-02-28T02:04:26;4.83;;;2.90;;
1719;SDS011;857;52.872;9.692;2023-02-28T02:06:54;5.60;;;3.30;;
1719;SDS011;857;52.872;9.692;2023-02-28T02:09:22;6.40;;;4.50;;
1719;SDS011;857;52.872;9.692;2023-02-28T02:11:53;5.00;;;3.87;;
1719;SDS011;857;52.872;9.692;2023-02-28T02:14:26;6.23;;;3.67;;
1719;SDS011;857;52.872;9.692;2023-02-28T02:17:04;5.57;;;3.87;;
1719;SDS011;857;52.872;9.692;2023-02-28T02:19:49;6.83;;;3.20;;
1719;SDS011;857;52.872;9.692;2023-02-28T02:22:35;5.20;;;3.70;;
1719;SDS011;857;52.872;9.692;2023-02-28T02:27:57;5.60;;;3.83;;
1719;SDS011;857;52.872;9.692;2023-02-28T02:30:32;5.70;;;3.60;;
1719;SDS011;857;52.872;9.692;2023-02-28T02:33:14;5.50;;;3.20;;
1719;SDS011;857;52.872;9.692;2023-02-28T02:35:47;4.90;;;2.90;;
1719;SDS011;857;52.872;9.692;2023-02-28T02:38:18;6.40;;;3.40;;
1719;SDS011;857;52.872;9.692;2023-02-28T02:40:50;5.30;;;3.20;;
1719;SDS011;857;52.872;9.692;2023-02-28T02:43:20;5.47;;;3.10;;
1719;SDS011;857;52.872;9.692;2023-02-28T02:45:51;4.90;;;3.30;;
1719;SDS011;857;52.872;9.692;2023-02-28T02:48:23;4.53;;;2.97;;
1719;SDS011;857;52.872;9.692;2023-02-28T02:50:54;5.90;;;3.40;;
1719;SDS011;857;52.872;9.692;2023-02-28T02:53:24;5.73;;;3.37;;
1719;SDS011;857;52.872;9.692;2023-02-28T02:55:53;6.30;;;3.50;;
1719;SDS011;857;52.872;9.692;2023-02-28T02:58:24;4.87;;;2.90;;
1719;SDS011;857;52.872;9.692;2023-02-28T03:00:53;5.63;;;3.87;;
1719;SDS011;857;52.872;9.692;2023-02-28T03:03:22;4.97;;;3.50;;
1719;SDS011;857;52.872;9.692;2023-02-28T03:05:57;6.73;;;3.47;;
1719;SDS011;857;52.872;9.692;2023-02-28T03:08:25;5.00;;;3.30;;
1719;SDS011;857;52.872;9.692;2023-02-28T03:10:55;3.33;;;3.00;;
1719;SDS011;857;52.872;9.692;2023-02-28T03:13:37;6.30;;;3.50;;
1719;SDS011;857;52.872;9.692;2023-02-28T03:16:16;4.10;;;3.40;;
1719;SDS011;857;52.872;9.692;2023-02-28T03:18:48;4.77;;;2.97;;
1719;SDS011;857;52.872;9.692;2023-02-28T03:21:22;3.70;;;3.10;;
1719;SDS011;857;52.872;9.692;2023-02-28T03:23:53;4.63;;;2.90;;
1719;SDS011;857;52.872;9.692;2023-02-28T03:26:23;6.10;;;3.10;;
1719;SDS011;857;52.872;9.692;2023-02-28T03:28:52;5.10;;;2.40;;
1719;SDS011;857;52.872;9.692;2023-02-28T03:31:23;3.33;;;2.60;;
1719;SDS011;857;52.872;9.692;2023-02-28T03:33:55;5.33;;;2.90;;
1719;SDS011;857;52.872;9.692;2023-02-28T03:36:25;4.20;;;2.60;;
1719;SDS011;857;52.872;9.692;2023-02-28T03:38:54;4.83;;;2.67;;
1719;SDS011;857;52.872;9.692;2023-02-28T03:41:23;4.10;;;2.60;;
1719;SDS011;857;52.872;9.692;2023-02-28T03:43:53;5.90;;;3.10;;
1719;SDS011;857;52.872;9.692;2023-02-28T03:46:22;4.20;;;2.53;;
1719;SDS011;857;52.872;9.692;2023-02-28T03:48:53;3.60;;;2.93;;
1719;SDS011;857;52.872;9.692;2023-02-28T03:51:24;3.07;;;2.40;;
1719;SDS011;857;52.872;9.692;2023-02-28T03:53:53;3.10;;;2.00;;
1719;SDS011;857;52.872;9.692;2023-02-28T03:56:22;4.20;;;2.57;;
1719;SDS011;857;52.872;9.692;2023-02-28T03:58:51;4.37;;;2.50;;
1719;SDS011;857;52.872;9.692;2023-02-28T04:01:21;4.43;;;2.80;;
1719;SDS011;857;52.872;9.692;2023-02-28T04:03:50;5.37;;;2.50;;
1719;SDS011;857;52.872;9.692;2023-02-28T04:06:18;2.73;;;2.20;;
1719;SDS011;857;52.872;9.692;2023-02-28T04:08:48;5.27;;;3.00;;
1719;SDS011;857;52.872;9.692;2023-02-28T04:11:18;3.60;;;2.53;;
1719;SDS011;857;52.872;9.692;2023-02-28T04:13:47;3.53;;;2.50;;
1719;SDS011;857;52.872;9.692;2023-02-28T04:16:15;5.80;;;2.40;;
1719;SDS011;857;52.872;9.692;2023-02-28T04:18:43;2.85;;;2.17;;
1719;SDS011;857;52.872;9.692;2023-02-28T04:21:10;5.20;;;2.93;;
1719;SDS011;857;52.872;9.692;2023-02-28T04:23:38;3.80;;;2.50;;
1719;SDS011;857;52.872;9.692;2023-02-28T04:26:08;4.00;;;2.63;;
1719;SDS011;857;52.872;9.692;2023-02-28T04:28:36;4.03;;;2.40;;
1719;SDS011;857;52.872;9.692;2023-02-28T04:31:04;10.80;;;2.53;;
1719;SDS011;857;52.872;9.692;2023-02-28T04:33:32;3.23;;;2.13;;
1719;SDS011;857;52.872;9.692;2023-02-28T04:36:00;5.80;;;2.53;;
1719;SDS011;857;52.872;9.692;2023-02-28T04:38:28;3.33;;;2.30;;
1719;SDS011;857;52.872;9.692;2023-02-28T04:40:57;3.50;;;2.40;;
1719;SDS011;857;52.872;9.692;2023-02-28T04:43:27;4.67;;;2.50;;
1719;SDS011;857;52.872;9.692;2023-02-28T04:45:55;5.47;;;2.83;;
1719;SDS011;857;52.872;9.692;2023-02-28T04:48:22;4.83;;;2.50;;
1719;SDS011;857;52.872;9.692;2023-02-28T04:50:50;8.17;;;2.27;;
1719;SDS011;857;52.872;9.692;2023-02-28T04:53:18;3.87;;;2.17;;
1719;SDS011;857;52.872;9.692;2023-02-28T04:55:46;2.80;;;2.33;;
1719;SDS011;857;52.872;9.692;2023-02-28T04:58:14;4.60;;;2.40;;
1719;SDS011;857;52.872;9.692;2023-02-28T05:00:43;4.23;;;2.30;;
1719;SDS011;857;52.872;9.692;2023-02-28T05:03:10;3.17;;;2.37;;
1719;SDS011;857;52.872;9.692;2023-02-28T05:05:38;3.97;;;2.60;;
1719;SDS011;857;52.872;9.692;2023-02-28T05:08:06;3.10;;;2.77;;
1719;SDS011;857;52.872;9.692;2023-02-28T05:10:35;4.10;;;2.47;;
1719;SDS011;857;52.872;9.692;2023-02-28T05:13:02;3.67;;;2.80;;
1719;SDS011;857;52.872;9.692;2023-02-28T05:15:30;4.00;;;2.40;;
1719;SDS011;857;52.872;9.692;2023-02-28T05:17:59;7.27;;;2.63;;
1719;SDS011;857;52.872;9.692;2023-02-28T05:20:31;2.53;;;2.10;;
1719;SDS011;857;52.872;9.692;2023-02-28T05:22:59;4.20;;;2.40;;
1719;SDS011;857;52.872;9.692;2023-02-28T05:25:27;3.43;;;2.10;;
1719;SDS011;857;52.872;9.692;2023-02-28T05:27:55;4.50;;;2.53;;
1719;SDS011;857;52.872;9.692;2023-02-28T05:30:22;4.70;;;2.70;;
1719;SDS011;857;52.872;9.692;2023-02-28T05:32:51;4.00;;;2.30;;
1719;SDS011;857;52.872;9.692;2023-02-28T05:35:20;3.37;;;2.10;;
1719;SDS011;857;52.872;9.692;2023-02-28T05:37:48;4.00;;;2.90;;
1719;SDS011;857;52.872;9.692;2023-02-28T05:40:16;5.50;;;2.50;;
1719;SDS011;857;52.872;9.692;2023-02-28T05:42:45;5.07;;;2.60;;
1719;SDS011;857;52.872;9.692;2023-02-28T05:45:13;3.77;;;3.17;;
1719;SDS011;857;52.872;9.692;2023-02-28T05:47:41;3.00;;;2.70;;
1719;SDS011;857;52.872;9.692;2023-02-28T05:50:09;4.60;;;3.20;;
1719;SDS011;857;52.872;9.692;2023-02-28T05:52:38;4.70;;;3.10;;
1719;SDS011;857;52.872;9.692;2023-02-28T05:55:06;4.23;;;2.80;;
1719;SDS011;857;52.872;9.692;2023-02-28T05:57:34;2.70;;;2.50;;
1719;SDS011;857;52.872;9.692;2023-02-28T06:00:02;3.60;;;2.53;;
1719;SDS011;857;52.872;9.692;2023-02-28T06:02:38;4.10;;;2.90;;
1719;SDS011;857;52.872;9.692;2023-02-28T06:05:07;6.40;;;3.50;;
1719;SDS011;857;52.872;9.692;2023-02-28T06:07:38;7.80;;;3.00;;
1719;SDS011;857;52.872;9.692;2023-02-28T06:10:06;3.93;;;3.07;;
1719;SDS011;857;52.872;9.692;2023-02-28T06:12:34;5.27;;;3.07;;
1719;SDS011;857;52.872;9.692;2023-02-28T06:15:02;4.73;;;2.83;;
1719;SDS011;857;52.872;9.692;2023-02-28T06:17:29;4.80;;;3.50;;
1719;SDS011;857;52.872;9.692;2023-02-28T06:19:57;5.73;;;3.50;;
1719;SDS011;857;52.872;9.692;2023-02-28T06:22:25;6.70;;;3.77;;
1719;SDS011;857;52.872;9.692;2023-02-28T06:24:54;8.10;;;3.83;;
1719;SDS011;857;52.872;9.692;2023-02-28T06:27:22;5.13;;;3.10;;
1719;SDS011;857;52.872;9.692;2023-02-28T06:29:52;6.03;;;3.40;;
1719;SDS011;857;52.872;9.692;2023-02-28T06:32:20;5.73;;;3.27;;
1719;SDS011;857;52.872;9.692;2023-02-28T06:34:48;3.83;;;2.43;;
1719;SDS011;857;52.872;9.692;2023-02-28T06:37:16;5.13;;;3.27;;
1719;SDS011;857;52.872;9.692;2023-02-28T06:39:50;7.10;;;3.60;;
1719;SDS011;857;52.872;9.692;2023-02-28T06:42:23;6.93;;;3.30;;
1719;SDS011;857;52.872;9.692;2023-02-28T06:44:54;6.63;;;3.83;;
1719;SDS011;857;52.872;9.692;2023-02-28T06:47:22;6.40;;;4.00;;
1719;SDS011;857;52.872;9.692;2023-02-28T06:49:49;4.60;;;2.90;;
1719;SDS011;857;52.872;9.692;2023-02-28T06:52:17;5.53;;;3.57;;
1719;SDS011;857;52.872;9.692;2023-02-28T06:54:45;5.20;;;3.40;;
1719;SDS011;857;52.872;9.692;2023-02-28T06:57:13;4.50;;;2.97;;
1719;SDS011;857;52.872;9.692;2023-02-28T06:59:42;4.40;;;3.40;;
1719;SDS011;857;52.872;9.692;2023-02-28T07:02:09;4.87;;;3.60;;
1719;SDS011;857;52.872;9.692;2023-02-28T07:04:37;4.40;;;3.00;;
1719;SDS011;857;52.872;9.692;2023-02-28T07:07:06;4.50;;;3.10;;
1719;SDS011;857;52.872;9.692;2023-02-28T07:09:33;5.30;;;3.07;;
1719;SDS011;857;52.872;9.692;2023-02-28T07:12:01;6.53;;;3.20;;
1719;SDS011;857;52.872;9.692;2023-02-28T07:14:29;4.50;;;3.30;;
1719;SDS011;857;52.872;9.692;2023-02-28T07:16:58;7.15;;;3.65;;
1719;SDS011;857;52.872;9.692;2023-02-28T07:19:25;6.10;;;3.70;;
1719;SDS011;857;52.872;9.692;2023-02-28T07:21:53;7.20;;;3.60;;
1719;SDS011;857;52.872;9.692;2023-02-28T07:24:21;4.37;;;3.53;;
1719;SDS011;857;52.872;9.692;2023-02-28T07:26:51;7.53;;;3.73;;
1719;SDS011;857;52.872;9.692;2023-02-28T07:29:19;4.43;;;2.63;;
1719;SDS011;857;52.872;9.692;2023-02-28T07:31:46;4.73;;;3.00;;
1719;SDS011;857;52.872;9.692;2023-02-28T07:34:17;7.90;;;3.53;;
1719;SDS011;857;52.872;9.692;2023-02-28T07:36:47;9.03;;;3.60;;
1719;SDS011;857;52.872;9.692;2023-02-28T07:39:24;10.27;;;5.80;;
1719;SDS011;857;52.872;9.692;2023-02-28T07:41:51;16.47;;;7.97;;
1719;SDS011;857;52.872;9.692;2023-02-28T07:44:22;10.33;;;6.37;;
1719;SDS011;857;52.872;9.692;2023-02-28T07:46:50;8.50;;;5.47;;
1719;SDS011;857;52.872;9.692;2023-02-28T07:49:19;15.57;;;9.07;;
1719;SDS011;857;52.872;9.692;2023-02-28T07:51:47;8.00;;;5.40;;
1719;SDS011;857;52.872;9.692;2023-02-28T07:54:14;7.50;;;3.80;;
1719;SDS011;857;52.872;9.692;2023-02-28T07:56:42;5.90;;;4.00;;
1719;SDS011;857;52.872;9.692;2023-02-28T07:59:10;7.20;;;4.67;;
1719;SDS011;857;52.872;9.692;2023-02-28T08:01:37;6.20;;;4.70;;
1719;SDS011;857;52.872;9.692;2023-02-28T08:04:05;6.30;;;4.60;;
1719;SDS011;857;52.872;9.692;2023-02-28T08:06:34;7.00;;;4.60;;
1719;SDS011;857;52.872;9.692;2023-02-28T08:09:02;8.70;;;5.20;;
1719;SDS011;857;52.872;9.692;2023-02-28T08:11:30;10.50;;;6.60;;
1719;SDS011;857;52.872;9.692;2023-02-28T08:13:57;9.13;;;5.97;;
1719;SDS011;857;52.872;9.692;2023-02-28T08:16:25;9.00;;;5.83;;
1719;SDS011;857;52.872;9.692;2023-02-28T08:18:53;10.40;;;6.87;;
1719;SDS011;857;52.872;9.692;2023-02-28T08:21:21;13.93;;;8.90;;
1719;SDS011;857;52.872;9.692;2023-02-28T08:23:50;22.70;;;11.87;;
1719;SDS011;857;52.872;9.692;2023-02-28T08:26:18;17.80;;;9.70;;
1719;SDS011;857;52.872;9.692;2023-02-28T08:28:46;14.57;;;9.83;;
1719;SDS011;857;52.872;9.692;2023-02-28T08:31:14;11.53;;;8.50;;
1719;SDS011;857;52.872;9.692;2023-02-28T08:33:42;10.20;;;7.13;;
1719;SDS011;857;52.872;9.692;2023-02-28T08:36:11;12.50;;;9.27;;
1719;SDS011;857;52.872;9.692;2023-02-28T08:38:39;9.80;;;7.93;;
1719;SDS011;857;52.872;9.692;2023-02-28T08:41:09;10.30;;;7.70;;
1719;SDS011;857;52.872;9.692;2023-02-28T08:43:37;10.73;;;7.67;;
1719;SDS011;857;52.872;9.692;2023-02-28T08:46:05;9.03;;;7.10;;
1719;SDS011;857;52.872;9.692;2023-02-28T08:48:34;10.13;;;6.87;;
1719;SDS011;857;52.872;9.692;2023-02-28T08:51:04;9.33;;;6.90;;
1719;SDS011;857;52.872;9.692;2023-02-28T08:53:32;13.00;;;9.97;;
1719;SDS011;857;52.872;9.692;2023-02-28T08:56:00;13.87;;;8.70;;
1719;SDS011;857;52.872;9.692;2023-02-28T08:58:29;14.53;;;10.10;;
1719;SDS011;857;52.872;9.692;2023-02-28T09:00:57;16.07;;;10.97;;
1719;SDS011;857;52.872;9.692;2023-02-28T09:03:25;12.03;;;8.27;;
1719;SDS011;857;52.872;9.692;2023-02-28T09:05:57;4.80;;;3.80;;
1719;SDS011;857;52.872;9.692;2023-02-28T09:08:25;8.90;;;6.33;;
1719;SDS011;857;52.872;9.692;2023-02-28T09:10:53;2.70;;;2.47;;
1719;SDS011;857;52.872;9.692;2023-02-28T09:13:23;4.50;;;3.17;;
1719;SDS011;857;52.872;9.692;2023-02-28T09:15:52;3.87;;;2.40;;
1719;SDS011;857;52.872;9.692;2023-02-28T09:18:20;3.33;;;2.60;;
1719;SDS011;857;52.872;9.692;2023-02-28T09:20:48;3.87;;;2.40;;
1719;SDS011;857;52.872;9.692;2023-02-28T09:23:16;3.33;;;2.53;;
1719;SDS011;857;52.872;9.692;2023-02-28T09:25:47;3.10;;;2.20;;
1719;SDS011;857;52.872;9.692;2023-02-28T09:28:15;2.30;;;2.10;;
1719;SDS011;857;52.872;9.692;2023-02-28T09:30:44;3.83;;;2.40;;
1719;SDS011;857;52.872;9.692;2023-02-28T09:33:13;2.80;;;2.10;;
1719;SDS011;857;52.872;9.692;2023-02-28T09:35:41;2.40;;;2.20;;
1719;SDS011;857;52.872;9.692;2023-02-28T09:38:09;2.90;;;1.90;;
1719;SDS011;857;52.872;9.692;2023-02-28T09:40:37;3.83;;;2.03;;
1719;SDS011;857;52.872;9.692;2023-02-28T09:43:09;4.40;;;2.90;;
1719;SDS011;857;52.872;9.692;2023-02-28T09:45:39;2.60;;;2.40;;
1719;SDS011;857;52.872;9.692;2023-02-28T09:48:10;2.90;;;1.90;;
1719;SDS011;857;52.872;9.692;2023-02-28T09:50:41;3.80;;;2.10;;
1719;SDS011;857;52.872;9.692;2023-02-28T09:53:13;2.40;;;1.80;;
1719;SDS011;857;52.872;9.692;2023-02-28T09:55:43;1.93;;;1.60;;
1719;SDS011;857;52.872;9.692;2023-02-28T09:58:14;2.70;;;2.00;;
1719;SDS011;857;52.872;9.692;2023-02-28T10:00:44;2.47;;;1.50;;
1719;SDS011;857;52.872;9.692;2023-02-28T10:06:06;2.50;;;2.00;;
1719;SDS011;857;52.872;9.692;2023-02-28T10:08:36;3.93;;;1.80;;
1719;SDS011;857;52.872;9.692;2023-02-28T10:11:09;4.07;;;2.07;;
1719;SDS011;857;52.872;9.692;2023-02-28T10:13:40;2.00;;;1.80;;
1719;SDS011;857;52.872;9.692;2023-02-28T10:16:16;2.10;;;1.57;;
1719;SDS011;857;52.872;9.692;2023-02-28T10:18:47;1.83;;;1.73;;
1719;SDS011;857;52.872;9.692;2023-02-28T10:21:19;2.90;;;1.93;;
1719;SDS011;857;52.872;9.692;2023-02-28T10:23:48;2.40;;;1.83;;
1719;SDS011;857;52.872;9.692;2023-02-28T10:26:17;2.57;;;2.20;;
1719;SDS011;857;52.872;9.692;2023-02-28T10:28:45;1.50;;;1.40;;
1719;SDS011;857;52.872;9.692;2023-02-28T10:31:14;2.17;;;1.67;;
1719;SDS011;857;52.872;9.692;2023-02-28T10:33:43;3.70;;;1.93;;
1719;SDS011;857;52.872;9.692;2023-02-28T10:36:12;2.43;;;1.83;;
1719;SDS011;857;52.872;9.692;2023-02-28T10:38:43;2.50;;;2.00;;
1719;SDS011;857;52.872;9.692;2023-02-28T10:41:13;2.20;;;1.40;;
1719;SDS011;857;52.872;9.692;2023-02-28T10:43:42;2.10;;;1.47;;
1719;SDS011;857;52.872;9.692;2023-02-28T10:46:13;2.93;;;1.80;;
1719;SDS011;857;52.872;9.692;2023-02-28T10:48:59;1.37;;;1.20;;
1719;SDS011;857;52.872;9.692;2023-02-28T10:51:27;2.00;;;1.80;;
1719;SDS011;857;52.872;9.692;2023-02-28T10:54:03;2.13;;;1.83;;
1719;SDS011;857;52.872;9.692;2023-02-28T10:56:31;2.10;;;1.60;;
1719;SDS011;857;52.872;9.692;2023-02-28T10:58:59;2.03;;;1.80;;
1719;SDS011;857;52.872;9.692;2023-02-28T11:01:35;2.40;;;1.80;;
1719;SDS011;857;52.872;9.692;2023-02-28T11:04:03;2.10;;;1.87;;
1719;SDS011;857;52.872;9.692;2023-02-28T11:06:43;5.23;;;3.57;;
1719;SDS011;857;52.872;9.692;2023-02-28T11:09:18;4.60;;;2.50;;
1719;SDS011;857;52.872;9.692;2023-02-28T11:15:23;2.90;;;1.63;;
1719;SDS011;857;52.872;9.692;2023-02-28T11:17:59;3.57;;;2.23;;
1719;SDS011;857;52.872;9.692;2023-02-28T11:20:30;3.93;;;2.13;;
1719;SDS011;857;52.872;9.692;2023-02-28T11:23:00;2.67;;;1.87;;
1719;SDS011;857;52.872;9.692;2023-02-28T11:25:30;2.20;;;1.87;;
1719;SDS011;857;52.872;9.692;2023-02-28T11:27:59;1.97;;;1.77;;
1719;SDS011;857;52.872;9.692;2023-02-28T11:30:32;2.10;;;1.77;;
1719;SDS011;857;52.872;9.692;2023-02-28T11:33:00;3.03;;;1.90;;
1719;SDS011;857;52.872;9.692;2023-02-28T11:35:30;1.00;;;0.80;;
1719;SDS011;857;52.872;9.692;2023-02-28T11:38:00;1.20;;;1.10;;
1719;SDS011;857;52.872;9.692;2023-02-28T11:40:31;2.03;;;1.50;;
1719;SDS011;857;52.872;9.692;2023-02-28T11:43:12;1.97;;;1.47;;
1719;SDS011;857;52.872;9.692;2023-02-28T11:45:48;0.90;;;0.77;;
1719;SDS011;857;52.872;9.692;2023-02-28T11:48:20;2.50;;;1.80;;
1719;SDS011;857;52.872;9.692;2023-02-28T11:50:54;1.50;;;1.33;;
1719;SDS011;857;52.872;9.692;2023-02-28T11:53:28;1.70;;;1.10;;
1719;SDS011;857;52.872;9.692;2023-02-28T11:56:03;1.60;;;1.37;;
1719;SDS011;857;52.872;9.692;2023-02-28T11:58:37;1.83;;;1.10;;
1719;SDS011;857;52.872;9.692;2023-02-28T12:03:55;2.07;;;1.60;;
1719;SDS011;857;52.872;9.692;2023-02-28T12:06:25;1.10;;;0.97;;
1719;SDS011;857;52.872;9.692;2023-02-28T12:09:00;1.70;;;1.57;;
1719;SDS011;857;52.872;9.692;2023-02-28T12:11:47;2.07;;;1.70;;
1719;SDS011;857;52.872;9.692;2023-02-28T12:14:29;1.57;;;1.30;;
1719;SDS011;857;52.872;9.692;2023-02-28T12:17:06;1.47;;;1.37;;
1719;SDS011;857;52.872;9.692;2023-02-28T12:19:40;2.50;;;1.37;;
1719;SDS011;857;52.872;9.692;2023-02-28T12:27:45;1.67;;;1.23;;
1719;SDS011;857;52.872;9.692;2023-02-28T12:30:15;1.63;;;1.53;;
1719;SDS011;857;52.872;9.692;2023-02-28T12:32:44;1.87;;;1.50;;
1719;SDS011;857;52.872;9.692;2023-02-28T12:35:13;2.23;;;1.57;;
1719;SDS011;857;52.872;9.692;2023-02-28T12:37:43;1.57;;;1.30;;
1719;SDS011;857;52.872;9.692;2023-02-28T12:40:13;1.17;;;1.07;;
1719;SDS011;857;52.872;9.692;2023-02-28T12:42:43;1.40;;;1.03;;
1719;SDS011;857;52.872;9.692;2023-02-28T12:45:15;1.13;;;0.97;;
1719;SDS011;857;52.872;9.692;2023-02-28T12:47:44;2.57;;;1.40;;
1719;SDS011;857;52.872;9.692;2023-02-28T12:50:13;1.50;;;1.30;;
1719;SDS011;857;52.872;9.692;2023-02-28T12:52:46;1.40;;;1.30;;
1719;SDS011;857;52.872;9.692;2023-02-28T12:55:17;1.80;;;1.60;;
1719;SDS011;857;52.872;9.692;2023-02-28T12:57:48;1.00;;;0.90;;
1719;SDS011;857;52.872;9.692;2023-02-28T13:00:19;1.50;;;1.40;;
1719;SDS011;857;52.872;9.692;2023-02-28T13:02:58;1.47;;;1.27;;
1719;SDS011;857;52.872;9.692;2023-02-28T13:05:36;1.47;;;1.00;;
1719;SDS011;857;52.872;9.692;2023-02-28T13:10:53;1.10;;;0.67;;
1719;SDS011;857;52.872;9.692;2023-02-28T13:13:21;1.60;;;1.37;;
1719;SDS011;857;52.872;9.692;2023-02-28T13:15:58;2.13;;;1.20;;
1719;SDS011;857;52.872;9.692;2023-02-28T13:18:33;2.23;;;1.20;;
1719;SDS011;857;52.872;9.692;2023-02-28T13:21:03;1.50;;;1.40;;
1719;SDS011;857;52.872;9.692;2023-02-28T13:23:57;1.80;;;1.57;;
1719;SDS011;857;52.872;9.692;2023-02-28T13:29:21;1.43;;;1.23;;
1719;SDS011;857;52.872;9.692;2023-02-28T13:34:37;1.70;;;1.40;;
1719;SDS011;857;52.872;9.692;2023-02-28T13:39:51;0.80;;;0.80;;
1719;SDS011;857;52.872;9.692;2023-02-28T13:42:23;1.90;;;1.17;;
1719;SDS011;857;52.872;9.692;2023-02-28T13:47:38;2.00;;;1.50;;
1719;SDS011;857;52.872;9.692;2023-02-28T13:50:18;2.10;;;1.40;;
1719;SDS011;857;52.872;9.692;2023-02-28T13:52:48;1.17;;;1.03;;
1719;SDS011;857;52.872;9.692;2023-02-28T13:55:30;0.70;;;0.60;;
1719;SDS011;857;52.872;9.692;2023-02-28T13:58:08;1.70;;;0.97;;
1719;SDS011;857;52.872;9.692;2023-02-28T14:00:49;1.07;;;0.97;;
1719;SDS011;857;52.872;9.692;2023-02-28T14:03:28;1.80;;;1.23;;
1719;SDS011;857;52.872;9.692;2023-02-28T14:06:15;0.87;;;0.87;;
1719;SDS011;857;52.872;9.692;2023-02-28T14:08:49;1.27;;;0.90;;
1719;SDS011;857;52.872;9.692;2023-02-28T14:11:26;2.10;;;1.37;;
1719;SDS011;857;52.872;9.692;2023-02-28T14:13:54;1.47;;;1.30;;
1719;SDS011;857;52.872;9.692;2023-02-28T14:16:23;1.70;;;1.53;;
1719;SDS011;857;52.872;9.692;2023-02-28T14:18:58;1.70;;;1.30;;
1719;SDS011;857;52.872;9.692;2023-02-28T14:21:27;2.13;;;1.60;;
1719;SDS011;857;52.872;9.692;2023-02-28T14:26:56;2.27;;;1.00;;
1719;SDS011;857;52.872;9.692;2023-02-28T14:29:33;1.93;;;1.20;;
1719;SDS011;857;52.872;9.692;2023-02-28T14:32:05;1.07;;;0.77;;
1719;SDS011;857;52.872;9.692;2023-02-28T14:34:40;1.00;;;0.80;;
1719;SDS011;857;52.872;9.692;2023-02-28T14:37:13;1.57;;;1.40;;
1719;SDS011;857;52.872;9.692;2023-02-28T14:39:43;2.13;;;1.20;;
1719;SDS011;857;52.872;9.692;2023-02-28T14:42:30;1.40;;;1.13;;
1719;SDS011;857;52.872;9.692;2023-02-28T14:44:58;1.70;;;1.30;;
1719;SDS011;857;52.872;9.692;2023-02-28T14:47:27;1.27;;;1.17;;
1719;SDS011;857;52.872;9.692;2023-02-28T14:49:55;1.73;;;1.17;;
1719;SDS011;857;52.872;9.692;2023-02-28T14:52:26;0.80;;;0.70;;
1719;SDS011;857;52.872;9.692;2023-02-28T14:54:55;1.60;;;0.83;;
1719;SDS011;857;52.872;9.692;2023-02-28T14:57:24;1.77;;;1.20;;
1719;SDS011;857;52.872;9.692;2023-02-28T14:59:59;2.50;;;1.33;;
1719;SDS011;857;52.872;9.692;2023-02-28T15:02:30;1.20;;;0.80;;
1719;SDS011;857;52.872;9.692;2023-02-28T15:04:59;1.00;;;0.90;;
1719;SDS011;857;52.872;9.692;2023-02-28T15:07:28;1.10;;;1.00;;
1719;SDS011;857;52.872;9.692;2023-02-28T15:10:09;2.63;;;1.80;;
1719;SDS011;857;52.872;9.692;2023-02-28T15:12:37;2.13;;;1.47;;
1719;SDS011;857;52.872;9.692;2023-02-28T15:15:13;1.77;;;1.10;;
1719;SDS011;857;52.872;9.692;2023-02-28T15:17:41;1.50;;;1.10;;
1719;SDS011;857;52.872;9.692;2023-02-28T15:20:10;1.00;;;1.00;;
1719;SDS011;857;52.872;9.692;2023-02-28T15:22:40;2.10;;;0.97;;
1719;SDS011;857;52.872;9.692;2023-02-28T15:25:09;1.50;;;1.27;;
1719;SDS011;857;52.872;9.692;2023-02-28T15:27:39;1.00;;;0.90;;
1719;SDS011;857;52.872;9.692;2023-02-28T15:30:08;1.47;;;1.00;;
1719;SDS011;857;52.872;9.692;2023-02-28T15:32:40;1.23;;;0.87;;
1719;SDS011;857;52.872;9.692;2023-02-28T15:35:19;1.33;;;1.13;;
1719;SDS011;857;52.872;9.692;2023-02-28T15:37:52;1.57;;;1.20;;
1719;SDS011;857;52.872;9.692;2023-02-28T15:40:28;1.47;;;0.80;;
1719;SDS011;857;52.872;9.692;2023-02-28T15:42:59;2.10;;;1.20;;
1719;SDS011;857;52.872;9.692;2023-02-28T15:45:34;2.33;;;1.60;;
1719;SDS011;857;52.872;9.692;2023-02-28T15:48:04;1.50;;;1.40;;
1719;SDS011;857;52.872;9.692;2023-02-28T15:50:32;2.67;;;2.00;;
1719;SDS011;857;52.872;9.692;2023-02-28T15:53:02;1.30;;;1.13;;
1719;SDS011;857;52.872;9.692;2023-02-28T15:55:30;1.47;;;1.03;;
1719;SDS011;857;52.872;9.692;2023-02-28T15:58:00;1.43;;;1.23;;
1719;SDS011;857;52.872;9.692;2023-02-28T16:03:43;1.30;;;0.90;;
1719;SDS011;857;52.872;9.692;2023-02-28T16:06:26;1.93;;;1.47;;
1719;SDS011;857;52.872;9.692;2023-02-28T16:09:03;2.27;;;1.63;;
1719;SDS011;857;52.872;9.692;2023-02-28T16:15:05;1.57;;;1.07;;
1719;SDS011;857;52.872;9.692;2023-02-28T16:17:34;1.10;;;1.00;;
1719;SDS011;857;52.872;9.692;2023-02-28T16:20:05;1.30;;;1.10;;
1719;SDS011;857;52.872;9.692;2023-02-28T16:22:33;1.83;;;1.00;;
1719;SDS011;857;52.872;9.692;2023-02-28T16:25:02;1.20;;;1.10;;
1719;SDS011;857;52.872;9.692;2023-02-28T16:27:35;1.23;;;0.90;;
1719;SDS011;857;52.872;9.692;2023-02-28T16:30:04;1.10;;;0.90;;
1719;SDS011;857;52.872;9.692;2023-02-28T16:32:32;2.37;;;1.20;;